Time;durP1;ratioP1;P1;durP2;ratioP2;P2;SDS_P1;SDS_P2;PMS_P1;PMS_P2;Temp;Humidity;BMP_temperature;BMP_pressure;BME280_temperature;BME280_humidity;BME280_pressure;Samples;Min_cycle;Max_cycle;Signal;HPM_P1;HPM_P2
2023/12/18 00:00:24;;;;;;;11.90;7.70;;;;;;;4.79;100.00;103319.72;5090237;28;20024;-36
2023/12/18 00:02:50;;;;;;;12.83;7.60;;;;;;;4.81;100.00;103316.91;5090269;28;20020;-35
2023/12/18 00:05:15;;;;;;;9.57;7.03;;;;;;;4.75;100.00;103309.41;5089581;28;20036;-36
2023/12/18 00:07:40;;;;;;;12.43;7.97;;;;;;;4.82;100.00;103308.72;5081728;28;20029;-35
2023/12/18 00:10:06;;;;;;;11.73;8.20;;;;;;;4.82;100.00;103310.56;5076262;28;20024;-35
2023/12/18 00:12:31;;;;;;;11.27;7.78;;;;;;;4.85;100.00;103318.34;5076825;28;20021;-36
2023/12/18 00:14:57;;;;;;;10.43;7.57;;;;;;;4.79;100.00;103306.31;5076151;28;20025;-36
2023/12/18 00:17:22;;;;;;;12.33;7.70;;;;;;;4.84;100.00;103306.78;5076268;28;20447;-36
2023/12/18 00:19:47;;;;;;;12.67;8.73;;;;;;;4.86;100.00;103310.16;5076147;28;20043;-35
2023/12/18 00:22:13;;;;;;;13.57;7.40;;;;;;;4.87;100.00;103302.97;5076747;28;20024;-35
2023/12/18 00:24:38;;;;;;;12.38;8.35;;;;;;;4.89;100.00;103306.38;5076772;28;20025;-36
2023/12/18 00:27:04;;;;;;;12.37;8.63;;;;;;;4.89;100.00;103301.00;5076298;28;20047;-36
2023/12/18 00:29:29;;;;;;;14.02;8.38;;;;;;;4.89;100.00;103301.00;5075922;28;20464;-35
2023/12/18 00:31:54;;;;;;;14.27;8.30;;;;;;;4.89;100.00;103301.00;5075931;28;20460;-36
2023/12/18 00:34:20;;;;;;;12.40;8.40;;;;;;;4.77;100.00;103273.41;5076086;28;20077;-36
2023/12/18 00:36:45;;;;;;;10.90;7.47;;;;;;;4.82;100.00;103273.88;5076619;28;20020;-36
2023/12/18 00:39:11;;;;;;;10.77;7.90;;;;;;;4.90;100.00;103281.25;5076039;28;20068;-36
2023/12/18 00:41:37;;;;;;;14.07;8.07;;;;;;;4.89;100.00;103280.41;5076262;28;20059;-36
2023/12/18 00:44:03;;;;;;;12.52;9.15;;;;;;;4.90;100.00;103281.25;5076447;28;20056;-36
2023/12/18 00:46:28;;;;;;;;;;;;;;;4.96;100.00;103290.59;5076020;28;20036;-36
2023/12/18 00:48:54;;;;;;;12.53;8.77;;;;;;;4.94;100.00;103289.88;5075122;28;20046;-36
2023/12/18 00:51:19;;;;;;;12.57;8.27;;;;;;;4.92;100.00;103287.31;5075562;28;20301;-36
2023/12/18 00:53:44;;;;;;;11.27;8.47;;;;;;;4.95;100.00;103278.19;5075465;28;20028;-36
2023/12/18 00:56:10;;;;;;;13.13;9.03;;;;;;;4.94;100.00;103277.31;5075764;28;20059;-36
2023/12/18 00:58:35;;;;;;;16.20;9.17;;;;;;;4.96;100.00;103279.88;5075109;28;20028;-36
2023/12/18 01:01:01;;;;;;;12.95;9.15;;;;;;;4.87;100.00;103266.28;5075376;28;20055;-36
2023/12/18 01:03:26;;;;;;;13.43;8.70;;;;;;;4.95;100.00;103280.84;5074975;28;20035;-36
2023/12/18 01:05:51;;;;;;;11.17;8.30;;;;;;;4.88;100.00;103268.00;5075521;28;20086;-36
2023/12/18 01:08:17;;;;;;;11.90;8.30;;;;;;;4.95;100.00;103275.50;5075192;28;20029;-36
2023/12/18 01:10:42;;;;;;;14.43;8.85;;;;;;;4.94;100.00;103284.53;5073921;28;20111;-36
2023/12/18 01:13:08;;;;;;;12.73;8.93;;;;;;;4.93;100.00;103281.00;5074808;28;20021;-36
2023/12/18 01:15:33;;;;;;;14.03;10.27;;;;;;;4.91;100.00;103281.09;5074954;28;20099;-36
2023/12/18 01:17:58;;;;;;;10.63;8.63;;;;;;;4.91;100.00;103273.06;5074992;28;20024;-36
2023/12/18 01:20:24;;;;;;;16.47;9.07;;;;;;;4.94;100.00;103271.13;5074869;28;20025;-36
2023/12/18 01:22:49;;;;;;;13.77;9.07;;;;;;;4.86;100.00;103259.22;5075272;28;20107;-36
2023/12/18 01:25:14;;;;;;;11.83;8.60;;;;;;;4.94;100.00;103255.88;5074869;28;20093;-36
2023/12/18 01:27:43;;;;;;;10.83;8.87;;;;;;;4.91;100.00;103265.03;5075335;28;20020;-36
2023/12/18 01:30:09;;;;;;;13.70;8.80;;;;;;;4.91;100.00;103270.38;5074944;28;20027;-36
2023/12/18 01:32:35;;;;;;;12.15;8.82;;;;;;;4.89;100.00;103268.84;5074377;28;20025;-36
2023/12/18 01:35:00;;;;;;;18.77;9.75;;;;;;;4.90;100.00;103268.69;5074560;28;20081;-36
2023/12/18 01:37:25;;;;;;;13.47;9.13;;;;;;;4.93;100.00;103281.00;5074615;28;20108;-36
2023/12/18 01:39:51;;;;;;;11.17;8.80;;;;;;;4.93;100.00;103282.81;5074836;28;20376;-36
2023/12/18 01:42:16;;;;;;;13.50;8.80;;;;;;;4.93;100.00;103283.69;5075070;28;20036;-36
2023/12/18 01:44:41;;;;;;;15.47;9.20;;;;;;;4.94;100.00;103276.47;5075183;28;20732;-36
2023/12/18 01:47:08;;;;;;;12.47;8.47;;;;;;;4.88;100.00;103262.63;5074456;28;20064;-36
2023/12/18 01:49:33;;;;;;;11.75;9.02;;;;;;;4.92;100.00;103276.59;5074509;28;20028;-36
2023/12/18 01:51:59;;;;;;;13.25;9.07;;;;;;;4.89;100.00;103267.00;5074335;28;20370;-36
2023/12/18 01:54:25;;;;;;;15.70;9.85;;;;;;;4.94;100.00;103276.47;5074004;28;20020;-36
2023/12/18 01:56:52;;;;;;;13.35;9.07;;;;;;;4.97;100.00;103276.19;5072955;28;20400;-36
2023/12/18 01:59:18;;;;;;;12.52;9.40;;;;;;;4.98;100.00;103267.16;5074439;28;20036;-36
2023/12/18 02:01:44;;;;;;;15.35;9.52;;;;;;;4.97;100.00;103271.69;5074403;28;20017;-36
2023/12/18 02:04:09;;;;;;;12.55;9.95;;;;;;;4.98;100.00;103259.13;5074349;28;20103;-36
2023/12/18 02:06:35;;;;;;;13.33;9.57;;;;;;;4.89;100.00;103242.88;5074944;28;20032;-36
2023/12/18 02:09:02;;;;;;;19.88;10.32;;;;;;;5.00;100.00;103257.16;5074095;28;20036;-36
2023/12/18 02:11:28;;;;;;;13.07;9.18;;;;;;;4.93;100.00;103238.09;5074491;28;20024;-36
2023/12/18 02:13:53;;;;;;;16.80;9.88;;;;;;;5.02;100.00;103263.22;5073695;28;20392;-36
2023/12/18 02:16:19;;;;;;;12.57;10.40;;;;;;;5.03;100.00;103259.59;5073554;28;20024;-36
2023/12/18 02:18:46;;;;;;;13.13;10.15;;;;;;;5.05;100.00;103260.28;5074378;28;20029;-36
2023/12/18 02:21:17;;;;;;;12.00;9.52;;;;;;;5.05;100.00;103255.75;5073913;28;20028;-36
2023/12/18 02:23:43;;;;;;;13.18;9.60;;;;;;;5.06;100.00;103253.94;5074364;28;20017;-36
2023/12/18 02:26:09;;;;;;;13.47;9.87;;;;;;;5.03;100.00;103236.28;5074183;28;20058;-36
2023/12/18 02:28:34;;;;;;;;;;;;;;;5.13;100.00;103241.69;5074160;28;20029;-36
2023/12/18 02:31:00;;;;;;;14.20;10.05;;;;;;;5.05;100.00;103233.47;5073769;28;20070;-36
2023/12/18 02:33:26;;;;;;;12.23;10.23;;;;;;;5.01;100.00;103232.88;5074206;28;20031;-36
2023/12/18 02:35:52;;;;;;;14.10;9.90;;;;;;;5.01;100.00;103232.88;5073422;28;20039;-36
2023/12/18 02:38:17;;;;;;;12.07;9.70;;;;;;;5.09;100.00;103245.63;5073600;28;20028;-36
2023/12/18 02:40:42;;;;;;;12.43;9.80;;;;;;;5.09;100.00;103254.50;5073630;28;20056;-36
2023/12/18 02:43:08;;;;;;;12.40;10.10;;;;;;;5.03;100.00;103238.97;5073546;28;20025;-36
2023/12/18 02:45:33;;;;;;;13.63;9.93;;;;;;;5.07;100.00;103236.84;5073881;28;20024;-36
2023/12/18 02:47:58;;;;;;;13.20;10.30;;;;;;;5.08;100.00;103238.56;5073549;28;20039;-36
2023/12/18 02:50:24;;;;;;;14.67;9.80;;;;;;;5.08;100.00;103230.53;5073501;28;20060;-36
2023/12/18 02:52:49;;;;;;;12.17;9.80;;;;;;;5.06;100.00;103225.28;5073818;28;20035;-36
2023/12/18 02:55:14;;;;;;;15.17;10.03;;;;;;;5.08;100.00;103227.84;5073425;28;20753;-36
2023/12/18 02:57:40;;;;;;;14.97;9.67;;;;;;;5.07;100.00;103224.28;5073186;28;20507;-36
2023/12/18 03:00:07;;;;;;;15.48;9.70;;;;;;;5.07;100.00;103226.97;5073388;28;20032;-36
2023/12/18 03:02:32;;;;;;;15.38;9.52;;;;;;;5.06;100.00;103216.38;5073442;28;20051;-36
2023/12/18 03:04:57;;;;;;;17.63;10.43;;;;;;;5.06;100.00;103217.22;5074178;28;20044;-36
2023/12/18 03:07:23;;;;;;;13.67;10.20;;;;;;;4.99;100.00;103201.84;5073149;28;20035;-36
2023/12/18 03:09:48;;;;;;;13.17;9.50;;;;;;;5.02;100.00;103210.44;5073561;28;20031;-36
2023/12/18 03:12:13;;;;;;;15.73;10.33;;;;;;;4.98;100.00;103202.81;5073911;28;20033;-36
2023/12/18 03:14:39;;;;;;;14.10;10.00;;;;;;;5.06;100.00;103219.06;5073588;28;20028;-36
2023/12/18 03:17:04;;;;;;;12.83;9.50;;;;;;;5.07;100.00;103215.38;5073828;28;20025;-36
2023/12/18 03:19:29;;;;;;;15.30;10.03;;;;;;;5.06;100.00;103219.06;5073292;28;20036;-36
2023/12/18 03:21:55;;;;;;;12.60;9.93;;;;;;;5.00;100.00;103200.84;5073717;28;20025;-36
2023/12/18 03:24:20;;;;;;;14.27;10.70;;;;;;;5.08;100.00;103214.44;5073147;28;20107;-36
2023/12/18 03:26:46;;;;;;;15.45;10.73;;;;;;;5.07;100.00;103221.59;5073117;28;20035;-36
2023/12/18 03:29:11;;;;;;;13.17;9.80;;;;;;;5.03;100.00;103208.63;5073004;28;20033;-36
2023/12/18 03:31:36;;;;;;;12.47;10.23;;;;;;;5.10;100.00;103215.13;5073106;28;20035;-36
2023/12/18 03:34:02;;;;;;;16.17;10.63;;;;;;;5.11;100.00;103206.94;5072948;28;20024;-36
2023/12/18 03:36:27;;;;;;;16.60;11.57;;;;;;;5.05;100.00;103196.75;5073527;28;20056;-36
2023/12/18 03:38:52;;;;;;;14.17;10.67;;;;;;;5.07;100.00;103202.81;5072729;28;20063;-36
2023/12/18 03:41:18;;;;;;;14.00;10.63;;;;;;;5.14;100.00;103203.16;5073356;28;20028;-36
2023/12/18 03:43:43;;;;;;;13.33;10.50;;;;;;;5.06;100.00;103201.13;5075793;28;20089;-36
2023/12/18 03:46:08;;;;;;;14.30;11.17;;;;;;;4.99;100.00;103188.44;5076485;28;20082;-36
2023/12/18 03:48:34;;;;;;;15.30;11.07;;;;;;;5.04;100.00;103197.75;5076375;28;20028;-36
2023/12/18 03:50:59;;;;;;;12.70;10.33;;;;;;;5.09;100.00;103211.59;5077040;28;20082;-36
2023/12/18 03:53:25;;;;;;;11.90;10.50;;;;;;;5.05;100.00;103209.34;5076557;28;20017;-36
2023/12/18 03:55:50;;;;;;;15.53;11.23;;;;;;;5.09;100.00;103216.97;5076816;28;20063;-36
2023/12/18 03:58:15;;;;;;;15.53;11.43;;;;;;;5.10;100.00;103218.66;5076292;28;20379;-36
2023/12/18 04:00:41;;;;;;;14.50;10.97;;;;;;;5.10;100.00;103217.81;5076856;28;20446;-36
2023/12/18 04:03:06;;;;;;;18.83;11.02;;;;;;;5.08;100.00;103206.38;5076697;28;20033;-36
2023/12/18 04:05:32;;;;;;;14.63;11.30;;;;;;;5.09;100.00;103219.66;5076725;28;20104;-36
2023/12/18 04:07:57;;;;;;;15.53;11.67;;;;;;;5.08;100.00;103214.44;5076099;28;20469;-36
2023/12/18 04:10:22;;;;;;;14.33;10.93;;;;;;;5.10;100.00;103223.19;5076566;28;20487;-36
2023/12/18 04:12:48;;;;;;;17.53;12.47;;;;;;;5.09;100.00;103218.81;5076863;28;20412;-36
2023/12/18 04:15:13;;;;;;;17.50;11.10;;;;;;;5.10;100.00;103204.41;5076137;28;20126;-36
2023/12/18 04:17:39;;;;;;;16.65;12.30;;;;;;;5.12;100.00;103199.75;5076288;28;20036;-36
2023/12/18 04:20:05;;;;;;;16.60;11.07;;;;;;;5.12;100.00;103211.34;5076106;28;20464;-36
2023/12/18 04:22:30;;;;;;;15.52;11.65;;;;;;;5.09;100.00;103208.91;5076067;28;20104;-36
2023/12/18 04:24:56;;;;;;;17.00;11.57;;;;;;;5.03;100.00;103193.38;5076052;28;20107;-36
2023/12/18 04:27:21;;;;;;;16.67;12.02;;;;;;;5.10;100.00;103204.41;5076793;28;20090;-36
2023/12/18 04:29:47;;;;;;;15.33;12.00;;;;;;;5.01;100.00;103184.63;5075891;28;20060;-36
2023/12/18 04:32:12;;;;;;;17.97;12.73;;;;;;;5.08;100.00;103199.19;5076529;28;20259;-36
2023/12/18 04:34:39;;;;;;;13.83;11.07;;;;;;;5.10;100.00;103199.88;5074404;28;20028;-36
2023/12/18 04:37:05;;;;;;;18.23;12.90;;;;;;;4.97;100.00;103176.97;5075735;28;20027;-36
2023/12/18 04:39:31;;;;;;;18.23;12.00;;;;;;;5.09;100.00;103198.19;5075763;28;20029;-36
2023/12/18 04:41:57;;;;;;;15.35;11.90;;;;;;;5.00;100.00;103171.34;5076255;28;20029;-36
2023/12/18 04:44:23;;;;;;;16.23;13.13;;;;;;;5.12;100.00;103192.56;5075755;28;20135;-36
2023/12/18 04:46:48;;;;;;;16.00;11.90;;;;;;;5.12;100.00;103197.94;5076212;28;20112;-36
2023/12/18 04:49:13;;;;;;;18.27;12.57;;;;;;;5.14;100.00;103195.09;5075260;28;20028;-36
2023/12/18 04:51:39;;;;;;;15.57;11.03;;;;;;;5.14;100.00;103184.38;5076435;28;20036;-36
2023/12/18 04:54:04;;;;;;;18.80;12.57;;;;;;;5.14;100.00;103187.91;5075655;28;20063;-36
2023/12/18 04:56:29;;;;;;;20.87;12.00;;;;;;;5.14;100.00;103187.91;5076121;28;20067;-36
2023/12/18 04:58:55;;;;;;;14.83;11.80;;;;;;;5.14;100.00;103189.72;5075389;28;20024;-36
2023/12/18 05:01:20;;;;;;;19.03;12.40;;;;;;;5.07;100.00;103176.00;5075456;28;20074;-36
2023/12/18 05:03:46;;;;;;;14.00;11.63;;;;;;;5.14;100.00;103179.00;5076109;28;20063;-36
2023/12/18 05:06:21;;;;;;;18.08;13.05;;;;;;;5.05;100.00;103169.94;5075551;28;20024;-36
2023/12/18 05:08:48;;;;;;;21.00;12.60;;;;;;;5.14;100.00;103193.25;5074955;28;20024;-36
2023/12/18 05:11:15;;;;;;;13.95;11.93;;;;;;;5.15;100.00;103184.22;5075435;28;20052;-36
2023/12/18 05:13:41;;;;;;;15.77;12.23;;;;;;;5.18;100.00;103198.38;5075052;28;20111;-36
2023/12/18 05:16:06;;;;;;;21.10;12.90;;;;;;;5.19;100.00;103194.69;5075647;28;20112;-36
2023/12/18 05:18:32;;;;;;;15.00;11.80;;;;;;;5.19;100.00;103182.13;5075018;28;20055;-36
2023/12/18 05:20:57;;;;;;;15.27;11.50;;;;;;;5.22;100.00;103186.34;5075246;28;20031;-36
2023/12/18 05:23:23;;;;;;;17.20;12.00;;;;;;;5.18;100.00;103179.59;5074653;28;20427;-36
2023/12/18 05:25:49;;;;;;;17.90;11.82;;;;;;;5.24;100.00;103185.25;5074560;28;20062;-37
2023/12/18 05:28:14;;;;;;;17.10;11.15;;;;;;;5.25;100.00;103192.28;5075079;28;20067;-37
2023/12/18 05:30:39;;;;;;;16.20;11.30;;;;;;;5.28;100.00;103192.03;5074826;28;20055;-36
2023/12/18 05:33:05;;;;;;;15.50;11.20;;;;;;;5.28;100.00;103185.81;5074437;28;20039;-36
2023/12/18 05:35:30;;;;;;;15.03;11.80;;;;;;;5.29;100.00;103188.34;5075169;28;20074;-36
2023/12/18 05:37:55;;;;;;;16.03;12.13;;;;;;;5.26;100.00;103177.88;5074565;28;20043;-36
2023/12/18 05:40:21;;;;;;;15.57;11.63;;;;;;;5.23;100.00;103175.50;5074754;28;20028;-36
2023/12/18 05:42:46;;;;;;;16.10;11.53;;;;;;;5.32;100.00;103182.72;5074285;28;20469;-36
2023/12/18 05:45:11;;;;;;;18.33;12.43;;;;;;;5.34;100.00;103186.09;5074491;28;20533;-36
2023/12/18 05:47:37;;;;;;;17.77;11.97;;;;;;;5.33;100.00;103187.09;5074752;28;20056;-36
2023/12/18 05:50:02;;;;;;;16.87;11.60;;;;;;;5.35;100.00;103186.94;5074056;28;20048;-36
2023/12/18 05:52:28;;;;;;;19.02;12.40;;;;;;;5.35;100.00;103193.16;5074898;28;20367;-36
2023/12/18 05:54:53;;;;;;;15.45;12.02;;;;;;;5.35;100.00;103187.78;5074265;28;20024;-36
2023/12/18 05:57:19;;;;;;;20.37;12.27;;;;;;;5.36;100.00;103186.78;5072575;28;20059;-36
2023/12/18 05:59:44;;;;;;;16.60;12.43;;;;;;;5.33;100.00;103176.34;5074425;28;20051;-36
2023/12/18 06:02:10;;;;;;;16.65;11.82;;;;;;;5.34;100.00;103191.47;5074490;28;20025;-36
2023/12/18 06:04:35;;;;;;;17.57;12.20;;;;;;;5.29;100.00;103172.25;5073874;28;20036;-36
2023/12/18 06:07:01;;;;;;;23.23;13.38;;;;;;;5.31;100.00;103181.00;5074703;28;20270;-36
2023/12/18 06:09:26;;;;;;;18.47;13.90;;;;;;;5.31;100.00;103181.00;5073720;28;20465;-36
2023/12/18 06:11:52;;;;;;;17.90;12.77;;;;;;;5.30;100.00;103187.34;5074847;28;20028;-36
2023/12/18 06:14:17;;;;;;;18.33;13.00;;;;;;;5.31;100.00;103181.00;5074302;28;20481;-36
2023/12/18 06:16:42;;;;;;;15.43;11.43;;;;;;;5.22;100.00;103163.09;5074388;28;20025;-36
2023/12/18 06:19:08;;;;;;;16.37;11.97;;;;;;;5.32;100.00;103182.72;5073667;28;20031;-36
2023/12/18 06:21:40;;;;;;;15.87;12.30;;;;;;;5.29;100.00;103185.66;5073902;28;20341;-36
2023/12/18 06:24:05;;;;;;;18.90;13.38;;;;;;;5.29;100.00;103174.94;5073890;28;20465;-36
2023/12/18 06:26:31;;;;;;;19.70;12.18;;;;;;;5.28;100.00;103178.59;5074104;28;20039;-36
2023/12/18 06:28:56;;;;;;;18.10;12.07;;;;;;;5.28;100.00;103183.97;5073796;28;20063;-36
2023/12/18 06:31:21;;;;;;;17.77;12.90;;;;;;;5.30;100.00;103190.03;5073786;28;20024;-36
2023/12/18 06:33:47;;;;;;;20.63;13.23;;;;;;;5.30;100.00;103183.81;5073704;28;20025;-36
2023/12/18 06:36:15;;;;;;;18.23;11.67;;;;;;;5.29;100.00;103182.97;5073968;28;20078;-36
2023/12/18 06:38:41;;;;;;;18.10;13.65;;;;;;;5.29;100.00;103174.09;5073534;28;20082;-36
2023/12/18 06:41:07;;;;;;;15.67;11.90;;;;;;;5.27;100.00;103173.38;5073645;28;20036;-36
2023/12/18 06:43:32;;;;;;;17.13;12.57;;;;;;;5.15;100.00;103154.72;5073590;28;20024;-36
2023/12/18 06:45:59;;;;;;;22.13;13.23;;;;;;;5.28;100.00;103177.75;5073289;28;20059;-36
2023/12/18 06:48:25;;;;;;;16.73;11.98;;;;;;;5.27;100.00;103178.72;5073481;28;20032;-36
2023/12/18 06:50:50;;;;;;;17.23;11.77;;;;;;;5.30;100.00;103178.47;5073538;28;20033;-36
2023/12/18 06:53:15;;;;;;;18.73;13.10;;;;;;;5.29;100.00;103182.97;5073185;28;20049;-36
2023/12/18 06:55:41;;;;;;;17.67;12.40;;;;;;;5.32;100.00;103182.72;5072497;28;20472;-36
2023/12/18 06:58:06;;;;;;;18.70;12.20;;;;;;;5.30;100.00;103176.63;5073301;28;20060;-36
2023/12/18 07:00:31;;;;;;;14.87;12.27;;;;;;;5.35;100.00;103185.09;5073790;28;20403;-36
2023/12/18 07:02:57;;;;;;;16.80;12.30;;;;;;;5.38;100.00;103186.66;5073738;28;20036;-36
2023/12/18 07:05:23;;;;;;;20.60;12.20;;;;;;;5.38;100.00;103186.66;5073588;28;20085;-36
2023/12/18 07:07:48;;;;;;;;;;;;;;;5.41;100.00;103186.38;5073302;28;20024;-36
2023/12/18 07:10:14;;;;;;;17.98;12.68;;;;;;;5.28;100.00;103181.28;5073306;28;20352;-36
2023/12/18 07:12:39;;;;;;;18.30;12.53;;;;;;;5.38;100.00;103186.66;5072985;28;20032;-36
2023/12/18 07:15:06;;;;;;;15.87;12.13;;;;;;;5.28;100.00;103177.75;5073147;28;20275;-36
2023/12/18 07:17:31;;;;;;;17.50;13.73;;;;;;;5.36;100.00;103194.84;5074257;28;20086;-36
2023/12/18 07:19:57;;;;;;;18.45;12.90;;;;;;;5.39;100.00;103199.09;5076907;28;20033;-36
2023/12/18 07:22:22;;;;;;;15.52;12.48;;;;;;;5.41;100.00;103203.31;5077501;28;20112;-36
2023/12/18 07:24:48;;;;;;;20.73;13.87;;;;;;;5.37;100.00;103198.41;5077056;28;20025;-36
2023/12/18 07:27:14;;;;;;;19.35;14.00;;;;;;;5.40;100.00;103204.31;5077038;28;20051;-36
2023/12/18 07:29:39;;;;;;;19.73;12.97;;;;;;;5.40;100.00;103195.41;5077012;28;20107;-36
2023/12/18 07:32:05;;;;;;;19.77;14.03;;;;;;;5.32;100.00;103184.53;5076894;28;20369;-36
2023/12/18 07:34:30;;;;;;;19.27;13.98;;;;;;;5.36;100.00;103202.03;5076542;28;20036;-36
2023/12/18 07:36:56;;;;;;;19.10;13.33;;;;;;;5.37;100.00;103195.72;5077105;28;20029;-36
2023/12/18 07:39:21;;;;;;;18.33;13.37;;;;;;;5.36;100.00;103202.03;5076860;28;20456;-36
2023/12/18 07:41:46;;;;;;;15.20;11.93;;;;;;;5.36;100.00;103200.22;5076492;28;20358;-36
2023/12/18 07:44:12;;;;;;;17.97;13.27;;;;;;;5.28;100.00;103181.28;5077044;28;20060;-36
2023/12/18 07:46:37;;;;;;;21.77;13.97;;;;;;;5.35;100.00;103197.66;5077302;28;20085;-36
2023/12/18 07:49:02;;;;;;;19.27;13.03;;;;;;;5.36;100.00;103200.22;5076636;28;20627;-36
2023/12/18 07:51:28;;;;;;;19.37;13.53;;;;;;;5.36;100.00;103188.63;5077020;28;20050;-36
2023/12/18 07:53:53;;;;;;;17.30;12.80;;;;;;;5.36;100.00;103189.47;5075868;28;20024;-36
2023/12/18 07:56:18;;;;;;;18.70;13.07;;;;;;;5.34;100.00;103185.25;5076914;28;20048;-36
2023/12/18 07:58:44;;;;;;;19.97;13.00;;;;;;;5.37;100.00;103188.50;5075835;28;20086;-36
2023/12/18 08:01:09;;;;;;;19.10;13.63;;;;;;;5.40;100.00;103188.22;5076480;28;20055;-36
2023/12/18 08:03:34;;;;;;;20.93;14.10;;;;;;;5.38;100.00;103192.03;5076705;28;20048;-36
2023/12/18 08:06:00;;;;;;;18.00;13.17;;;;;;;5.36;100.00;103189.47;5076463;28;20033;-36
2023/12/18 08:08:25;;;;;;;20.40;13.97;;;;;;;5.36;100.00;103178.75;5076326;28;20089;-36
2023/12/18 08:10:50;;;;;;;21.27;13.40;;;;;;;5.41;100.00;103179.16;5076024;28;20031;-36
2023/12/18 08:13:16;;;;;;;21.20;14.43;;;;;;;5.43;100.00;103168.31;5076746;28;20028;-36
2023/12/18 08:15:41;;;;;;;18.57;14.07;;;;;;;5.35;100.00;103155.59;5076417;28;20063;-36
2023/12/18 08:18:07;;;;;;;22.50;14.65;;;;;;;5.43;100.00;103174.53;5076167;28;20377;-36
2023/12/18 08:20:32;;;;;;;21.77;13.60;;;;;;;5.46;100.00;103175.22;5076678;28;20400;-36
2023/12/18 08:22:58;;;;;;;22.53;14.03;;;;;;;5.39;100.00;103167.75;5075721;28;20266;-36
2023/12/18 08:25:25;;;;;;;18.42;13.75;;;;;;;5.41;100.00;103165.75;5076038;28;20520;-36
2023/12/18 08:27:50;;;;;;;19.83;13.07;;;;;;;5.43;100.00;103158.44;5075453;28;20119;-36
2023/12/18 08:30:16;;;;;;;19.95;14.27;;;;;;;5.55;100.00;103166.31;5076289;28;20111;-36
2023/12/18 08:32:41;;;;;;;16.20;12.83;;;;;;;5.57;100.00;103172.41;5076768;28;20056;-36
2023/12/18 08:35:07;;;;;;;18.03;12.80;;;;;;;5.59;100.00;103165.91;5076694;28;20028;-36
2023/12/18 08:37:32;;;;;;;17.00;12.43;;;;;;;5.55;100.00;103161.81;5076101;28;20145;-36
2023/12/18 08:39:57;;;;;;;15.10;12.10;;;;;;;5.62;100.00;103164.78;5075532;28;20029;-36
2023/12/18 08:42:23;;;;;;;18.57;13.30;;;;;;;5.61;100.00;103163.94;5076351;28;20048;-36
2023/12/18 08:44:49;;;;;;;21.47;13.27;;;;;;;5.64;100.00;103160.97;5076495;28;20036;-36
2023/12/18 08:47:14;;;;;;;16.90;13.07;;;;;;;5.66;100.00;103161.69;5074787;28;20029;-36
2023/12/18 08:49:40;;;;;;;16.75;12.55;;;;;;;5.71;100.00;103163.94;5075649;28;20056;-36
2023/12/18 08:52:05;;;;;;;17.93;12.63;;;;;;;5.70;100.00;103154.16;5075630;28;20396;-36
2023/12/18 08:54:31;;;;;;;14.55;12.73;;;;;;;5.71;100.00;103161.25;5074295;28;20500;-36
2023/12/18 08:56:56;;;;;;;17.53;12.50;;;;;;;5.73;100.00;103164.63;5075876;28;20048;-36
2023/12/18 08:59:21;;;;;;;22.07;14.27;;;;;;;5.66;100.00;103155.44;5075331;28;20059;-36
2023/12/18 09:01:47;;;;;;;18.87;13.60;;;;;;;5.65;100.00;103149.22;5075669;28;20035;-36
2023/12/18 09:04:12;;;;;;;15.57;12.47;;;;;;;5.76;100.00;103164.38;5075352;28;20024;-36
2023/12/18 09:06:39;;;;;;;16.03;11.80;;;;;;;5.77;100.00;103155.31;5075821;28;20032;-36
2023/12/18 09:09:04;;;;;;;17.08;13.07;;;;;;;5.76;100.00;103153.63;5075116;28;20028;-36
2023/12/18 09:11:33;;;;;;;18.23;12.07;;;;;;;5.82;100.00;103157.56;5074835;28;20087;-36
2023/12/18 09:13:59;;;;;;;18.23;12.65;;;;;;;5.74;100.00;103133.25;5075840;28;20024;-36
2023/12/18 09:16:24;;;;;;;14.02;11.77;;;;;;;5.92;100.00;103158.44;5075325;28;20021;-36
2023/12/18 09:18:49;;;;;;;17.00;12.80;;;;;;;5.86;100.00;103132.97;5074978;28;20110;-36
2023/12/18 09:21:15;;;;;;;15.87;11.33;;;;;;;5.96;100.00;103149.09;5075621;28;20416;-36
2023/12/18 09:23:41;;;;;;;20.80;12.98;;;;;;;5.94;100.00;103151.91;5074896;28;20039;-36
2023/12/18 09:26:06;;;;;;;13.75;12.15;;;;;;;5.95;100.00;103155.44;5075463;28;20112;-36
2023/12/18 09:28:32;;;;;;;17.33;11.67;;;;;;;5.97;100.00;103158.84;5075362;28;20464;-36
2023/12/18 09:30:57;;;;;;;20.60;13.03;;;;;;;5.99;100.00;103158.69;5074814;28;20048;-36
2023/12/18 09:33:22;;;;;;;16.20;11.53;;;;;;;5.99;100.00;103159.53;5074777;28;20032;-36
2023/12/18 09:35:48;;;;;;;16.90;12.18;;;;;;;5.92;100.00;103150.38;5075114;28;20098;-36
2023/12/18 09:38:13;;;;;;;15.00;12.30;;;;;;;5.97;100.00;103161.53;5074641;28;20025;-36
2023/12/18 09:40:43;;;;;;;20.20;12.07;;;;;;;5.98;100.00;103163.22;5074096;28;20033;-36
2023/12/18 09:43:09;;;;;;;15.10;11.73;;;;;;;5.93;100.00;103155.59;5074782;28;20024;-36
2023/12/18 09:45:35;;;;;;;18.98;12.27;;;;;;;5.97;100.00;103158.00;5075020;28;20060;-36
2023/12/18 09:48:01;;;;;;;17.92;11.60;;;;;;;5.97;100.00;103166.91;5072869;28;20064;-36
2023/12/18 09:50:27;;;;;;;17.00;11.82;;;;;;;5.93;100.00;103160.97;5075302;28;20048;-36
2023/12/18 09:53:06;;;;;;;18.27;12.88;;;;;;;5.92;100.00;103153.91;5074322;28;20032;-36
2023/12/18 09:55:32;;;;;;;17.75;12.40;;;;;;;5.98;100.00;103160.53;5074466;28;20075;-36
2023/12/18 09:57:59;;;;;;;18.13;13.23;;;;;;;5.98;100.00;103157.84;5074866;28;20469;-36
2023/12/18 10:00:26;;;;;;;18.42;12.65;;;;;;;5.86;100.00;103141.03;5074183;28;20033;-36
2023/12/18 10:02:51;;;;;;;;;;;;;;;6.07;100.00;103153.47;5074875;28;20024;-36
2023/12/18 10:05:16;;;;;;;16.63;12.32;;;;;;;6.01;100.00;103152.19;5074077;28;19912;-36
2023/12/18 10:07:42;;;;;;;18.08;12.10;;;;;;;6.02;100.00;103148.50;5074258;28;20029;-36
2023/12/18 10:10:07;;;;;;;15.33;12.70;;;;;;;5.99;100.00;103148.78;5073982;28;20119;-36
2023/12/18 10:12:32;;;;;;;20.00;12.93;;;;;;;5.99;100.00;103145.25;5073710;28;20024;-36
2023/12/18 10:14:58;;;;;;;20.37;12.97;;;;;;;6.01;100.00;103143.28;5074260;28;20106;-36
2023/12/18 10:17:23;;;;;;;18.73;13.10;;;;;;;6.01;100.00;103148.66;5073815;28;20067;-36
2023/12/18 10:19:49;;;;;;;17.13;12.60;;;;;;;6.01;100.00;103137.94;5073805;28;20028;-36
2023/12/18 10:22:17;;;;;;;16.90;12.68;;;;;;;6.03;100.00;103136.78;5074707;28;20035;-36
2023/12/18 10:24:43;;;;;;;18.38;13.38;;;;;;;6.05;100.00;103142.88;5073333;28;20025;-36
2023/12/18 10:27:09;;;;;;;19.48;12.43;;;;;;;6.07;100.00;103140.03;5074235;28;20036;-36
2023/12/18 10:29:35;;;;;;;16.45;13.23;;;;;;;5.83;100.00;103106.41;5073682;28;20381;-36
2023/12/18 10:32:01;;;;;;;16.57;13.17;;;;;;;6.04;100.00;103141.16;5073721;28;20037;-36
2023/12/18 10:34:26;;;;;;;16.10;12.90;;;;;;;6.02;100.00;103142.31;5074287;28;20032;-36
2023/12/18 10:36:55;;;;;;;19.73;13.27;;;;;;;6.03;100.00;103133.25;5073890;28;20025;-36
2023/12/18 10:39:21;;;;;;;24.00;14.02;;;;;;;5.97;100.00;103115.03;5073620;28;20145;-36
2023/12/18 10:41:53;;;;;;;19.20;13.15;;;;;;;6.05;100.00;103121.38;5073865;28;20054;-36
2023/12/18 10:44:21;;;;;;;17.77;13.77;;;;;;;6.04;100.00;103125.03;5073835;28;20020;-36
2023/12/18 10:46:49;;;;;;;20.95;13.40;;;;;;;6.04;100.00;103113.44;5073221;28;20090;-36
2023/12/18 10:49:16;;;;;;;21.65;13.00;;;;;;;6.03;100.00;103101.84;5073164;28;20025;-37
2023/12/18 10:51:44;;;;;;;21.05;13.80;;;;;;;6.09;100.00;103106.63;5074150;28;20082;-37
2023/12/18 10:54:11;;;;;;;19.00;13.20;;;;;;;5.98;100.00;103077.28;5073476;28;20039;-37
2023/12/18 10:56:38;;;;;;;19.98;13.43;;;;;;;6.15;100.00;103106.06;5073534;28;20113;-37
2023/12/18 10:59:06;;;;;;;17.27;12.75;;;;;;;6.13;100.00;103101.81;5073634;28;20024;-37
2023/12/18 11:01:32;;;;;;;17.38;12.65;;;;;;;6.11;100.00;103093.06;5073956;28;20419;-37
2023/12/18 11:03:59;;;;;;;20.63;12.35;;;;;;;6.08;100.00;103074.56;5073254;28;20025;-37